createdAt,value
2019-02-06T00:01:55.825Z,22.50
2019-02-06T00:04:28.880Z,19.37
2019-02-06T00:07:01.954Z,20.30
2019-02-06T00:09:34.740Z,17.00
2019-02-06T00:12:07.843Z,17.93
2019-02-06T00:14:40.870Z,16.60
2019-02-06T00:17:14.039Z,16.80
2019-02-06T00:19:46.802Z,17.10
2019-02-06T00:22:19.698Z,16.23
2019-02-06T00:24:52.811Z,17.03
2019-02-06T00:27:26.069Z,15.13
2019-02-06T00:29:59.089Z,16.60
2019-02-06T00:32:32.080Z,14.87
2019-02-06T00:35:04.961Z,15.70
2019-02-06T00:37:37.990Z,15.87
2019-02-06T00:40:10.831Z,16.50
2019-02-06T00:42:43.688Z,15.43
2019-02-06T00:45:16.732Z,23.87
2019-02-06T00:47:50.095Z,15.03
2019-02-06T00:50:23.447Z,14.73
2019-02-06T00:52:56.243Z,15.90
2019-02-06T00:55:29.043Z,19.40
2019-02-06T00:58:01.967Z,16.67
2019-02-06T01:00:34.905Z,15.40
2019-02-06T01:03:07.791Z,13.47
2019-02-06T01:05:41.758Z,15.43
2019-02-06T01:08:14.573Z,17.17
2019-02-06T01:10:47.640Z,18.10
2019-02-06T01:13:21.353Z,16.63
2019-02-06T01:15:54.178Z,15.77
2019-02-06T01:18:27.093Z,13.50
2019-02-06T01:21:00.107Z,18.43
2019-02-06T01:23:32.909Z,16.13
2019-02-06T01:26:06.342Z,16.13
2019-02-06T01:28:39.437Z,17.57
2019-02-06T01:31:20.683Z,14.37
2019-02-06T01:33:53.821Z,13.23
2019-02-06T01:36:27.229Z,14.43
2019-02-06T01:39:00.039Z,16.53
2019-02-06T01:41:33.009Z,13.63
2019-02-06T01:44:06.257Z,18.57
2019-02-06T01:46:39.480Z,18.70
2019-02-06T01:49:12.642Z,23.23
2019-02-06T01:51:45.541Z,20.20
2019-02-06T01:54:19.517Z,21.63
2019-02-06T01:56:52.537Z,20.07
2019-02-06T01:59:25.593Z,19.17
2019-02-06T02:01:58.434Z,19.57
2019-02-06T02:04:31.433Z,21.47
2019-02-06T02:07:04.188Z,22.90
2019-02-06T02:09:36.913Z,18.03
2019-02-06T02:12:09.982Z,22.53
2019-02-06T02:14:43.998Z,20.33
2019-02-06T02:17:17.147Z,20.83
2019-02-06T02:19:50.009Z,19.27
2019-02-06T02:22:23.194Z,21.87
2019-02-06T02:24:56.383Z,24.27
2019-02-06T02:27:29.328Z,19.33
2019-02-06T02:30:04.185Z,24.60
2019-02-06T02:32:37.492Z,19.50
2019-02-06T02:35:10.834Z,20.10
2019-02-06T02:37:43.584Z,24.30
2019-02-06T02:40:16.548Z,21.67
2019-02-06T02:42:49.658Z,22.83
2019-02-06T02:45:22.525Z,19.87
2019-02-06T02:47:55.360Z,21.13
2019-02-06T02:50:28.359Z,20.37
2019-02-06T02:53:01.323Z,22.13
2019-02-06T02:55:34.277Z,20.30
2019-02-06T02:58:07.147Z,20.37
2019-02-06T03:01:02.948Z,24.80
2019-02-06T03:03:39.463Z,26.80
2019-02-06T03:06:12.694Z,25.97
2019-02-06T03:08:45.544Z,27.10
2019-02-06T03:11:18.727Z,25.33
2019-02-06T03:13:51.869Z,20.80
2019-02-06T03:16:24.919Z,22.57
2019-02-06T03:18:58.000Z,23.93
2019-02-06T03:21:31.002Z,26.77
2019-02-06T03:24:03.995Z,25.73
2019-02-06T03:26:36.705Z,25.50
2019-02-06T03:29:09.526Z,26.07
2019-02-06T03:31:42.409Z,22.43
2019-02-06T03:34:15.505Z,24.43
2019-02-06T03:36:48.315Z,26.87
2019-02-06T03:39:21.115Z,27.23
2019-02-06T03:41:54.499Z,25.53
2019-02-06T03:44:27.422Z,30.30
2019-02-06T03:47:00.498Z,24.03
2019-02-06T03:49:33.648Z,26.70
2019-02-06T03:52:06.698Z,27.70
2019-02-06T03:54:39.799Z,22.40
2019-02-06T03:57:12.633Z,23.87
2019-02-06T03:59:45.453Z,24.07
2019-02-06T04:02:18.329Z,22.93
2019-02-06T04:04:51.330Z,21.73
2019-02-06T04:07:24.507Z,25.13
2019-02-06T04:09:57.602Z,21.07
2019-02-06T04:12:30.778Z,25.27
2019-02-06T04:15:03.796Z,23.20
2019-02-06T04:17:36.945Z,24.57
2019-02-06T04:20:10.036Z,22.67
2019-02-06T04:22:42.905Z,27.43
2019-02-06T04:25:15.896Z,19.30
2019-02-06T04:27:48.889Z,23.10
2019-02-06T04:30:21.737Z,24.83
2019-02-06T04:32:54.700Z,22.70
2019-02-06T04:35:27.704Z,21.33
2019-02-06T04:38:00.680Z,18.70
2019-02-06T04:40:33.815Z,23.47
2019-02-06T04:43:06.706Z,21.80
2019-02-06T04:45:39.649Z,22.20
2019-02-06T04:48:12.498Z,22.50
2019-02-06T04:50:45.598Z,23.20
2019-02-06T04:53:18.925Z,22.80
2019-02-06T04:55:51.780Z,29.00
2019-02-06T04:58:24.906Z,28.90
2019-02-06T05:00:57.704Z,24.53
2019-02-06T05:03:30.557Z,22.07
2019-02-06T05:06:03.595Z,22.83
2019-02-06T05:08:37.466Z,29.03
2019-02-06T05:11:10.575Z,19.73
2019-02-06T05:13:43.536Z,22.93
2019-02-06T05:16:16.924Z,21.50
2019-02-06T05:18:49.881Z,26.07
2019-02-06T05:21:22.741Z,23.03
2019-02-06T05:23:55.699Z,23.87
2019-02-06T05:26:28.535Z,25.57
2019-02-06T05:29:01.582Z,23.10
2019-02-06T05:31:34.520Z,26.73
2019-02-06T05:34:07.487Z,28.03
2019-02-06T05:36:40.228Z,23.80
2019-02-06T05:39:13.191Z,24.80
2019-02-06T05:41:46.192Z,30.03
2019-02-06T05:44:20.060Z,22.57
2019-02-06T05:46:52.920Z,21.93
2019-02-06T05:49:25.937Z,27.90
2019-02-06T05:51:58.712Z,24.07
2019-02-06T05:54:32.626Z,24.30
2019-02-06T05:57:05.731Z,23.33
2019-02-06T05:59:38.577Z,25.00
2019-02-06T06:02:11.531Z,25.77
2019-02-06T06:04:44.606Z,28.97
2019-02-06T06:07:17.488Z,21.87
2019-02-06T06:09:50.531Z,23.13
2019-02-06T06:12:23.506Z,25.90
2019-02-06T06:14:56.288Z,23.00
2019-02-06T06:17:29.517Z,24.40
2019-02-06T06:20:02.461Z,24.17
2019-02-06T06:22:35.434Z,24.33
2019-02-06T06:25:08.992Z,29.13
2019-02-06T06:27:42.237Z,26.57
2019-02-06T06:30:16.367Z,26.00
2019-02-06T06:32:49.265Z,24.23
2019-02-06T06:35:22.443Z,25.87
2019-02-06T06:38:00.827Z,22.83
2019-02-06T06:40:30.708Z,23.43
2019-02-06T06:43:03.732Z,23.73
2019-02-06T06:45:37.047Z,21.37
2019-02-06T06:48:10.111Z,22.30
2019-02-06T06:50:43.163Z,25.47
2019-02-06T06:53:16.133Z,25.27
2019-02-06T06:55:49.128Z,21.73
2019-02-06T06:58:22.288Z,32.10
2019-02-06T07:00:55.241Z,23.10
2019-02-06T07:03:28.056Z,29.87
2019-02-06T07:06:00.962Z,26.27
2019-02-06T07:08:34.091Z,20.93
2019-02-06T07:11:06.942Z,25.97
2019-02-06T07:13:39.860Z,31.67
2019-02-06T07:16:13.066Z,26.27
2019-02-06T07:18:46.178Z,27.63
2019-02-06T07:21:18.988Z,22.03
2019-02-06T07:23:51.977Z,24.17
2019-02-06T07:26:24.901Z,27.97
2019-02-06T07:28:57.729Z,20.67
2019-02-06T07:31:30.912Z,29.37
2019-02-06T07:34:04.112Z,19.13
2019-02-06T07:36:37.022Z,21.37
2019-02-06T07:39:10.262Z,26.63
2019-02-06T07:41:43.364Z,24.73
2019-02-06T07:44:16.374Z,21.53
2019-02-06T07:46:49.171Z,20.47
2019-02-06T07:49:23.837Z,22.07
2019-02-06T07:51:56.767Z,20.07
2019-02-06T07:54:29.477Z,21.23
2019-02-06T07:57:02.313Z,19.83
2019-02-06T07:59:35.210Z,18.87
2019-02-06T08:02:08.174Z,21.87
2019-02-06T08:04:41.682Z,16.87
2019-02-06T08:07:14.562Z,20.50
2019-02-06T08:09:47.601Z,18.63
2019-02-06T08:12:20.413Z,21.03
2019-02-06T08:14:53.804Z,20.43
2019-02-06T08:17:26.738Z,19.50
2019-02-06T08:19:59.741Z,21.53
2019-02-06T08:22:33.244Z,18.33
2019-02-06T08:25:06.715Z,19.10
2019-02-06T08:27:39.848Z,18.63
2019-02-06T08:30:30.569Z,20.47
2019-02-06T08:33:03.472Z,16.60
2019-02-06T08:35:36.755Z,16.23
2019-02-06T08:38:09.733Z,18.60
2019-02-06T08:40:42.713Z,17.70
2019-02-06T08:43:15.590Z,19.17
2019-02-06T08:45:48.444Z,16.70
2019-02-06T08:48:21.395Z,22.50
2019-02-06T08:50:54.400Z,19.63
2019-02-06T08:53:27.388Z,19.83
2019-02-06T08:56:00.328Z,16.97
2019-02-06T08:58:33.201Z,18.97
2019-02-06T09:01:06.335Z,18.63
2019-02-06T09:03:39.123Z,17.97
2019-02-06T09:06:13.259Z,17.33
2019-02-06T09:08:46.291Z,19.97
2019-02-06T09:11:19.650Z,21.10
2019-02-06T09:13:53.859Z,16.40
2019-02-06T09:16:26.816Z,24.43
2019-02-06T09:18:59.627Z,14.90
2019-02-06T09:21:32.503Z,20.17
2019-02-06T09:24:05.332Z,15.83
2019-02-06T09:26:38.349Z,18.63
2019-02-06T09:29:11.373Z,20.67
2019-02-06T09:31:44.338Z,16.57
2019-02-06T09:34:17.570Z,16.90
2019-02-06T09:36:50.404Z,15.90
2019-02-06T09:39:23.439Z,17.07
2019-02-06T09:41:56.449Z,13.27
2019-02-06T09:44:29.650Z,13.93
2019-02-06T09:47:02.893Z,21.87
2019-02-06T09:49:35.827Z,17.47
2019-02-06T09:52:08.676Z,17.63
2019-02-06T09:54:41.453Z,19.03
2019-02-06T09:57:14.636Z,16.37
2019-02-06T09:59:47.472Z,19.10
2019-02-06T10:02:20.315Z,16.90
2019-02-06T10:04:53.230Z,19.40
2019-02-06T10:07:26.160Z,16.93
2019-02-06T10:09:59.296Z,15.77
2019-02-06T10:12:32.125Z,17.23
2019-02-06T10:15:05.974Z,23.63
2019-02-06T10:17:38.795Z,21.13
2019-02-06T10:20:14.294Z,17.67
2019-02-06T10:22:48.301Z,19.00
2019-02-06T10:25:21.272Z,19.03
2019-02-06T10:27:54.118Z,16.17
2019-02-06T10:30:32.388Z,19.33
2019-02-06T10:33:05.677Z,16.90
2019-02-06T10:35:38.698Z,20.73
2019-02-06T10:38:11.526Z,22.30
2019-02-06T10:40:44.495Z,23.33
2019-02-06T10:43:17.376Z,20.40
2019-02-06T10:45:50.258Z,23.00
2019-02-06T10:48:23.091Z,19.07
2019-02-06T10:50:58.466Z,16.30
2019-02-06T10:53:30.869Z,14.03
2019-02-06T10:56:04.309Z,17.97
2019-02-06T10:58:37.324Z,21.40
2019-02-06T11:01:10.536Z,16.57
2019-02-06T11:03:43.619Z,17.47
2019-02-06T11:06:16.460Z,19.40
2019-02-06T11:08:49.375Z,18.00
2019-02-06T11:11:22.162Z,17.47
2019-02-06T11:13:55.077Z,15.47
2019-02-06T11:16:28.024Z,15.93
2019-02-06T11:19:00.937Z,14.63
2019-02-06T11:21:33.862Z,17.57
2019-02-06T11:24:06.790Z,18.33
2019-02-06T11:26:39.707Z,18.33
2019-02-06T11:29:12.770Z,15.87
2019-02-06T11:31:45.986Z,14.17
2019-02-06T11:34:18.992Z,16.43
2019-02-06T11:36:52.012Z,15.53
2019-02-06T11:39:24.896Z,13.83
2019-02-06T11:41:57.843Z,16.33
2019-02-06T11:44:30.845Z,14.97
2019-02-06T11:47:03.911Z,12.27
2019-02-06T11:49:38.119Z,15.00
2019-02-06T11:52:11.096Z,15.97
2019-02-06T11:54:44.460Z,14.27
2019-02-06T11:57:17.468Z,13.17
2019-02-06T11:59:53.032Z,17.77
2019-02-06T12:02:36.650Z,14.17
2019-02-06T12:05:00.416Z,16.07
2019-02-06T12:07:33.616Z,15.20
2019-02-06T12:10:10.240Z,12.27
2019-02-06T12:12:43.238Z,18.37
2019-02-06T12:15:17.203Z,17.70
2019-02-06T12:17:50.498Z,15.57
2019-02-06T12:20:23.433Z,13.13
2019-02-06T12:22:56.364Z,15.33
2019-02-06T12:25:29.334Z,23.43
2019-02-06T12:28:05.053Z,15.83
2019-02-06T12:30:38.058Z,14.63
2019-02-06T12:33:11.246Z,18.83
2019-02-06T12:35:43.961Z,15.60
2019-02-06T12:38:17.016Z,16.87
2019-02-06T12:40:50.448Z,16.10
2019-02-06T12:43:23.513Z,12.73
2019-02-06T12:45:56.421Z,15.48
2019-02-06T12:48:29.227Z,13.47
2019-02-06T12:51:02.388Z,14.90
2019-02-06T12:53:35.509Z,13.85
2019-02-06T12:56:08.680Z,12.50
2019-02-06T12:58:41.828Z,15.10
2019-02-06T13:01:14.899Z,15.03
2019-02-06T13:03:48.007Z,11.90
2019-02-06T13:06:20.989Z,15.30
2019-02-06T13:08:53.984Z,13.07
2019-02-06T13:11:27.050Z,15.07
2019-02-06T13:14:00.104Z,14.70
2019-02-06T13:16:33.103Z,12.70
2019-02-06T13:19:06.417Z,14.47
2019-02-06T13:21:39.369Z,12.83
2019-02-06T13:24:12.102Z,15.10
2019-02-06T13:26:45.128Z,11.47
2019-02-06T13:29:18.198Z,11.50
2019-02-06T13:31:51.113Z,11.00
2019-02-06T13:34:24.044Z,13.70
2019-02-06T13:36:56.889Z,13.27
2019-02-06T13:39:30.088Z,12.37
2019-02-06T13:42:05.402Z,14.73
2019-02-06T13:44:38.169Z,13.03
2019-02-06T13:47:11.130Z,13.17
2019-02-06T13:49:46.906Z,16.03
2019-02-06T13:52:19.694Z,12.90
2019-02-06T13:54:52.687Z,13.70
2019-02-06T13:57:33.412Z,15.97
2019-02-06T14:00:00.399Z,14.20
2019-02-06T14:02:33.534Z,12.57
2019-02-06T14:05:06.778Z,16.67
2019-02-06T14:07:39.570Z,11.83
2019-02-06T14:10:14.473Z,14.93
2019-02-06T14:12:47.290Z,14.93
2019-02-06T14:15:21.365Z,11.90
2019-02-06T14:17:54.264Z,12.15
2019-02-06T14:20:27.294Z,12.07
2019-02-06T14:23:03.980Z,12.80
2019-02-06T14:25:46.507Z,11.20
2019-02-06T14:28:44.843Z,14.67
2019-02-06T14:31:59.398Z,13.90
2019-02-06T14:35:13.125Z,14.73
2019-02-06T14:38:30.333Z,12.47
2019-02-06T14:41:43.495Z,22.53
2019-02-06T14:44:42.254Z,11.33
2019-02-06T14:47:55.694Z,11.17
2019-02-06T14:50:53.441Z,11.90
2019-02-06T14:53:49.809Z,12.83
2019-02-06T14:57:02.949Z,10.40
2019-02-06T15:00:11.643Z,9.90
2019-02-06T15:03:25.869Z,9.07
2019-02-06T15:06:20.454Z,9.20
2019-02-06T15:09:31.277Z,9.10
2019-02-06T15:12:49.048Z,6.73
2019-02-06T15:15:36.295Z,8.20
2019-02-06T15:19:09.494Z,8.50
2019-02-06T15:22:28.651Z,7.13
2019-02-06T15:25:15.564Z,9.27
2019-02-06T15:28:39.623Z,9.27
2019-02-06T15:32:09.579Z,8.00
2019-02-06T15:35:14.699Z,8.27
2019-02-06T15:38:02.285Z,7.43
2019-02-06T15:41:30.728Z,8.90
2019-02-06T15:44:50.865Z,10.07
2019-02-06T15:47:55.756Z,7.80
2019-02-06T15:51:09.534Z,7.30
2019-02-06T15:54:19.911Z,9.40
2019-02-06T15:57:56.061Z,11.13
2019-02-06T16:01:12.422Z,8.67
2019-02-06T16:04:32.630Z,11.90
2019-02-06T16:07:38.836Z,11.23
2019-02-06T16:10:56.735Z,14.80
2019-02-06T16:14:00.318Z,14.73
2019-02-06T16:16:55.167Z,14.47
2019-02-06T16:19:53.106Z,12.93
2019-02-06T16:23:01.616Z,50.90
2019-02-06T16:26:06.238Z,10.53
2019-02-06T16:29:11.780Z,10.03
2019-02-06T16:32:29.687Z,14.03
2019-02-06T16:35:59.574Z,13.50
2019-02-06T16:38:41.872Z,17.67
2019-02-06T16:41:56.879Z,13.57
2019-02-06T16:45:23.519Z,21.23
2019-02-06T16:48:50.914Z,14.53
2019-02-06T16:51:54.345Z,18.10
2019-02-06T16:55:04.840Z,24.53
2019-02-06T16:58:20.815Z,42.10
2019-02-06T17:01:22.507Z,20.67
2019-02-06T17:04:32.913Z,15.07
2019-02-06T17:08:02.131Z,14.27
2019-02-06T17:11:19.962Z,21.83
2019-02-06T17:14:34.688Z,24.87
2019-02-06T17:17:23.124Z,17.17
2019-02-06T17:20:40.031Z,16.87
2019-02-06T17:23:55.200Z,16.63
2019-02-06T17:26:38.280Z,15.63
2019-02-06T17:30:08.859Z,18.13
2019-02-06T17:33:18.140Z,19.03
2019-02-06T17:36:30.221Z,17.40
2019-02-06T17:39:35.163Z,17.87
2019-02-06T17:42:28.541Z,18.70
2019-02-06T17:45:34.587Z,19.07
2019-02-06T17:48:53.032Z,20.30
2019-02-06T17:51:53.472Z,20.87
2019-02-06T17:54:59.613Z,20.63
2019-02-06T17:57:32.582Z,20.23
2019-02-06T18:00:13.436Z,20.97
2019-02-06T18:02:46.626Z,23.50
2019-02-06T18:05:19.535Z,18.20
2019-02-06T18:07:52.829Z,24.70
2019-02-06T18:10:26.257Z,20.60
2019-02-06T18:12:59.155Z,21.03
2019-02-06T18:15:32.156Z,24.20
2019-02-06T18:18:05.138Z,20.90
2019-02-06T18:20:38.427Z,27.50
2019-02-06T18:23:11.362Z,22.17
2019-02-06T18:25:44.269Z,22.03
2019-02-06T18:28:17.229Z,25.53
2019-02-06T18:30:50.168Z,21.07
2019-02-06T18:33:23.306Z,26.57
2019-02-06T18:35:56.368Z,22.83
2019-02-06T18:38:32.060Z,18.80
2019-02-06T18:41:04.051Z,23.57
2019-02-06T18:43:37.058Z,25.90
2019-02-06T18:46:10.193Z,24.67
2019-02-06T18:48:43.872Z,24.37
2019-02-06T18:51:16.786Z,21.00
2019-02-06T18:53:49.772Z,21.33
2019-02-06T18:56:23.013Z,23.23
2019-02-06T18:58:56.121Z,20.33
2019-02-06T19:01:29.450Z,25.70
2019-02-06T19:04:03.507Z,22.97
2019-02-06T19:06:36.687Z,22.83
2019-02-06T19:09:12.098Z,22.17
2019-02-06T19:11:44.960Z,26.43
2019-02-06T19:14:18.312Z,26.57
2019-02-06T19:16:51.240Z,21.70
2019-02-06T19:19:25.798Z,25.10
2019-02-06T19:21:58.914Z,24.27
2019-02-06T19:24:32.109Z,28.10
2019-02-06T19:27:05.277Z,27.40
2019-02-06T19:29:39.320Z,27.43
2019-02-06T19:32:12.450Z,25.67
2019-02-06T19:34:45.573Z,25.73
2019-02-06T19:37:18.762Z,25.23
2019-02-06T19:39:51.603Z,28.87
2019-02-06T19:42:24.519Z,26.70
2019-02-06T19:44:57.409Z,29.50
2019-02-06T19:47:30.779Z,30.17
2019-02-06T19:50:07.872Z,25.47
2019-02-06T19:52:41.029Z,26.03
2019-02-06T19:55:13.990Z,32.87
2019-02-06T19:57:48.138Z,30.23
2019-02-06T20:00:24.265Z,56.90
2019-02-06T20:02:57.334Z,25.80
2019-02-06T20:05:30.938Z,29.70
2019-02-06T20:08:04.379Z,27.43
2019-02-06T20:10:40.217Z,28.30
2019-02-06T20:13:14.678Z,25.07
2019-02-06T20:15:48.119Z,24.37
2019-02-06T20:18:21.221Z,25.33
2019-02-06T20:20:54.148Z,25.87
2019-02-06T20:23:27.210Z,24.90
2019-02-06T20:26:00.027Z,28.43
2019-02-06T20:28:32.882Z,25.40
2019-02-06T20:31:06.088Z,23.10
2019-02-06T20:33:39.011Z,21.73
2019-02-06T20:36:12.225Z,24.03
2019-02-06T20:38:45.129Z,25.60
2019-02-06T20:41:18.273Z,22.93
2019-02-06T20:43:51.583Z,27.13
2019-02-06T20:46:24.591Z,27.03
2019-02-06T20:48:57.565Z,46.47
2019-02-06T20:51:31.579Z,25.53
2019-02-06T20:54:04.656Z,25.27
2019-02-06T20:56:37.794Z,25.70
2019-02-06T20:59:10.542Z,25.97
2019-02-06T21:01:43.474Z,25.80
2019-02-06T21:04:16.341Z,28.70
2019-02-06T21:06:49.365Z,24.70
2019-02-06T21:09:22.234Z,27.87
2019-02-06T21:11:55.140Z,23.73
2019-02-06T21:14:28.015Z,22.27
2019-02-06T21:17:00.981Z,22.53
2019-02-06T21:19:34.249Z,27.53
2019-02-06T21:22:07.086Z,21.80
2019-02-06T21:24:40.111Z,23.93
2019-02-06T21:27:12.939Z,22.73
2019-02-06T21:29:46.000Z,24.80
2019-02-06T21:32:19.059Z,24.07
2019-02-06T21:34:51.924Z,22.13
2019-02-06T21:37:27.025Z,22.10
2019-02-06T21:39:59.662Z,25.17
2019-02-06T21:42:32.543Z,22.07
2019-02-06T21:45:05.869Z,23.33
2019-02-06T21:47:38.881Z,23.80
2019-02-06T21:50:13.184Z,26.63
2019-02-06T21:52:46.109Z,24.77
2019-02-06T21:55:19.687Z,25.63
2019-02-06T21:57:52.725Z,26.57
2019-02-06T22:00:27.666Z,26.03
2019-02-06T22:03:00.499Z,27.80
2019-02-06T22:05:33.536Z,23.90
2019-02-06T22:08:06.412Z,23.73
2019-02-06T22:10:39.419Z,28.37
2019-02-06T22:13:12.211Z,26.73
2019-02-06T22:15:45.065Z,23.43
2019-02-06T22:18:18.061Z,27.13
2019-02-06T22:20:51.056Z,30.80
2019-02-06T22:23:23.900Z,26.30
2019-02-06T22:25:56.769Z,24.60
2019-02-06T22:28:29.682Z,26.17
2019-02-06T22:31:02.603Z,26.60
2019-02-06T22:33:35.626Z,24.40
2019-02-06T22:36:08.497Z,24.30
2019-02-06T22:38:41.402Z,30.37
2019-02-06T22:41:14.352Z,25.97
2019-02-06T22:43:47.409Z,30.73
2019-02-06T22:46:20.195Z,28.67
2019-02-06T22:48:52.977Z,29.17
2019-02-06T22:51:25.797Z,29.07
2019-02-06T22:53:58.737Z,25.03
2019-02-06T22:56:31.665Z,28.00
2019-02-06T22:59:04.593Z,31.90
2019-02-06T23:01:47.179Z,29.20
2019-02-06T23:04:20.107Z,27.70
2019-02-06T23:06:53.045Z,31.47
2019-02-06T23:09:25.956Z,30.27
2019-02-06T23:11:58.863Z,28.13
2019-02-06T23:14:31.895Z,28.63
2019-02-06T23:17:04.811Z,33.80
2019-02-06T23:19:37.671Z,29.90
2019-02-06T23:22:11.572Z,29.73
2019-02-06T23:24:44.613Z,30.50
2019-02-06T23:27:17.392Z,29.30
2019-02-06T23:29:50.218Z,28.40
2019-02-06T23:32:23.236Z,28.43
2019-02-06T23:34:56.986Z,30.33
2019-02-06T23:37:29.776Z,27.90
2019-02-06T23:40:02.713Z,30.33
2019-02-06T23:42:35.846Z,31.10
2019-02-06T23:45:08.768Z,31.60
2019-02-06T23:47:41.669Z,28.93
2019-02-06T23:50:14.599Z,26.67
2019-02-06T23:52:47.567Z,30.00
2019-02-06T23:55:20.471Z,29.97
2019-02-06T23:57:53.497Z,28.00
